sensor_id;sensor_type;location;lat;lon;timestamp;temperature;humidity
20233;DHT22;37438;55.674;13.074;2023-06-10T00:01:33;11.60;1.00
20233;DHT22;37438;55.674;13.074;2023-06-10T00:04:40;11.50;1.00
20233;DHT22;37438;55.674;13.074;2023-06-10T00:07:46;11.50;1.00
20233;DHT22;37438;55.674;13.074;2023-06-10T00:10:50;11.50;1.00
20233;DHT22;37438;55.674;13.074;2023-06-10T00:13:55;11.50;1.00
20233;DHT22;37438;55.674;13.074;2023-06-10T00:16:59;11.50;1.00
20233;DHT22;37438;55.674;13.074;2023-06-10T00:20:06;11.40;1.00
20233;DHT22;37438;55.674;13.074;2023-06-10T00:23:13;11.50;1.00
20233;DHT22;37438;55.674;13.074;2023-06-10T00:26:18;11.50;1.00
20233;DHT22;37438;55.674;13.074;2023-06-10T00:29:22;11.50;1.00
20233;DHT22;37438;55.674;13.074;2023-06-10T00:32:26;11.50;1.00
20233;DHT22;37438;55.674;13.074;2023-06-10T00:35:32;11.50;1.00
20233;DHT22;37438;55.674;13.074;2023-06-10T00:38:36;11.40;1.00
20233;DHT22;37438;55.674;13.074;2023-06-10T00:41:41;11.40;1.00
20233;DHT22;37438;55.674;13.074;2023-06-10T00:44:45;11.40;99.90
20233;DHT22;37438;55.674;13.074;2023-06-10T00:47:50;11.40;99.90
20233;DHT22;37438;55.674;13.074;2023-06-10T00:50:55;11.40;99.90
20233;DHT22;37438;55.674;13.074;2023-06-10T00:54:00;11.40;99.90
20233;DHT22;37438;55.674;13.074;2023-06-10T00:57:05;11.40;99.90
20233;DHT22;37438;55.674;13.074;2023-06-10T01:00:12;11.40;99.90
20233;DHT22;37438;55.674;13.074;2023-06-10T01:03:17;11.40;99.90
20233;DHT22;37438;55.674;13.074;2023-06-10T01:10:16;11.40;99.90
20233;DHT22;37438;55.674;13.074;2023-06-10T01:13:23;11.40;99.90
20233;DHT22;37438;55.674;13.074;2023-06-10T01:16:28;11.40;99.90
20233;DHT22;37438;55.674;13.074;2023-06-10T01:19:33;11.40;99.90
20233;DHT22;37438;55.674;13.074;2023-06-10T01:22:38;11.40;1.00
20233;DHT22;37438;55.674;13.074;2023-06-10T01:25:47;11.30;1.00
20233;DHT22;37438;55.674;13.074;2023-06-10T01:29:25;11.30;1.00
20233;DHT22;37438;55.674;13.074;2023-06-10T01:32:33;11.40;1.00
20233;DHT22;37438;55.674;13.074;2023-06-10T01:35:39;11.30;1.00
20233;DHT22;37438;55.674;13.074;2023-06-10T01:38:47;11.30;1.00
20233;DHT22;37438;55.674;13.074;2023-06-10T01:41:52;11.30;1.00
20233;DHT22;37438;55.674;13.074;2023-06-10T01:44:58;11.30;14.30
20233;DHT22;37438;55.674;13.074;2023-06-10T01:48:03;11.20;39.90
20233;DHT22;37438;55.674;13.074;2023-06-10T01:51:07;11.20;66.60
20233;DHT22;37438;55.674;13.074;2023-06-10T01:54:13;11.20;86.60
20233;DHT22;37438;55.674;13.074;2023-06-10T01:57:18;11.20;99.30
20233;DHT22;37438;55.674;13.074;2023-06-10T02:00:22;11.10;99.90
20233;DHT22;37438;55.674;13.074;2023-06-10T02:03:27;11.10;99.90
20233;DHT22;37438;55.674;13.074;2023-06-10T02:06:32;11.10;99.90
20233;DHT22;37438;55.674;13.074;2023-06-10T02:09:36;11.10;99.90
20233;DHT22;37438;55.674;13.074;2023-06-10T02:12:41;11.00;99.90
20233;DHT22;37438;55.674;13.074;2023-06-10T02:15:46;11.00;99.90
20233;DHT22;37438;55.674;13.074;2023-06-10T02:18:50;11.00;99.90
20233;DHT22;37438;55.674;13.074;2023-06-10T02:21:54;11.00;99.90
20233;DHT22;37438;55.674;13.074;2023-06-10T02:24:59;11.00;99.90
20233;DHT22;37438;55.674;13.074;2023-06-10T02:28:04;11.00;99.90
20233;DHT22;37438;55.674;13.074;2023-06-10T02:31:08;11.00;99.90
20233;DHT22;37438;55.674;13.074;2023-06-10T02:34:14;10.90;99.90
20233;DHT22;37438;55.674;13.074;2023-06-10T02:37:18;11.00;1.00
20233;DHT22;37438;55.674;13.074;2023-06-10T02:40:23;10.90;1.00
20233;DHT22;37438;55.674;13.074;2023-06-10T02:43:28;10.90;1.00
20233;DHT22;37438;55.674;13.074;2023-06-10T02:46:32;10.90;18.60
20233;DHT22;37438;55.674;13.074;2023-06-10T02:49:37;10.90;77.80
20233;DHT22;37438;55.674;13.074;2023-06-10T02:52:41;10.90;99.90
20233;DHT22;37438;55.674;13.074;2023-06-10T02:55:46;11.00;99.90
20233;DHT22;37438;55.674;13.074;2023-06-10T02:58:54;11.00;99.90
20233;DHT22;37438;55.674;13.074;2023-06-10T03:02:00;11.00;99.90
20233;DHT22;37438;55.674;13.074;2023-06-10T03:05:08;11.10;99.90
20233;DHT22;37438;55.674;13.074;2023-06-10T03:08:18;11.20;99.90
20233;DHT22;37438;55.674;13.074;2023-06-10T03:11:22;11.20;99.90
20233;DHT22;37438;55.674;13.074;2023-06-10T03:14:28;11.20;99.90
20233;DHT22;37438;55.674;13.074;2023-06-10T03:17:32;11.30;99.90
20233;DHT22;37438;55.674;13.074;2023-06-10T03:20:38;11.40;1.00
20233;DHT22;37438;55.674;13.074;2023-06-10T03:23:45;11.40;1.00
20233;DHT22;37438;55.674;13.074;2023-06-10T03:26:50;11.50;1.00
20233;DHT22;37438;55.674;13.074;2023-06-10T03:29:54;11.60;1.00
20233;DHT22;37438;55.674;13.074;2023-06-10T03:32:59;11.60;4.00
20233;DHT22;37438;55.674;13.074;2023-06-10T03:36:06;11.60;48.60
20233;DHT22;37438;55.674;13.074;2023-06-10T03:39:12;11.60;98.50
20233;DHT22;37438;55.674;13.074;2023-06-10T03:42:17;11.80;95.20
20233;DHT22;37438;55.674;13.074;2023-06-10T03:45:21;11.80;89.40
20233;DHT22;37438;55.674;13.074;2023-06-10T03:48:26;11.90;90.10
20233;DHT22;37438;55.674;13.074;2023-06-10T03:51:31;12.00;86.20
20233;DHT22;37438;55.674;13.074;2023-06-10T03:54:35;12.10;99.90
20233;DHT22;37438;55.674;13.074;2023-06-10T03:57:40;12.20;84.90
20233;DHT22;37438;55.674;13.074;2023-06-10T04:00:44;12.30;24.30
20233;DHT22;37438;55.674;13.074;2023-06-10T04:03:49;12.40;21.80
20233;DHT22;37438;55.674;13.074;2023-06-10T04:06:55;12.60;1.00
20233;DHT22;37438;55.674;13.074;2023-06-10T04:10:00;12.70;1.00
20233;DHT22;37438;55.674;13.074;2023-06-10T04:13:04;12.70;1.00
20233;DHT22;37438;55.674;13.074;2023-06-10T04:16:15;12.80;1.00
20233;DHT22;37438;55.674;13.074;2023-06-10T04:19:20;13.10;99.90
20233;DHT22;37438;55.674;13.074;2023-06-10T04:22:26;13.20;99.90
20233;DHT22;37438;55.674;13.074;2023-06-10T04:25:31;13.40;99.90
20233;DHT22;37438;55.674;13.074;2023-06-10T04:28:35;13.50;99.90
20233;DHT22;37438;55.674;13.074;2023-06-10T04:31:40;13.70;99.90
20233;DHT22;37438;55.674;13.074;2023-06-10T04:34:46;13.90;95.20
20233;DHT22;37438;55.674;13.074;2023-06-10T04:37:51;13.90;13.80
20233;DHT22;37438;55.674;13.074;2023-06-10T04:40:56;14.10;1.00
20233;DHT22;37438;55.674;13.074;2023-06-10T04:44:00;14.30;1.00
20233;DHT22;37438;55.674;13.074;2023-06-10T04:47:06;14.20;99.90
20233;DHT22;37438;55.674;13.074;2023-06-10T04:50:12;14.60;99.90
20233;DHT22;37438;55.674;13.074;2023-06-10T04:53:16;14.40;99.90
20233;DHT22;37438;55.674;13.074;2023-06-10T04:56:23;14.80;99.90
20233;DHT22;37438;55.674;13.074;2023-06-10T04:59:28;14.90;99.90
20233;DHT22;37438;55.674;13.074;2023-06-10T05:02:34;15.00;99.90
20233;DHT22;37438;55.674;13.074;2023-06-10T05:05:39;15.30;99.90
20233;DHT22;37438;55.674;13.074;2023-06-10T05:08:44;15.10;85.20
20233;DHT22;37438;55.674;13.074;2023-06-10T05:11:48;15.40;84.50
20233;DHT22;37438;55.674;13.074;2023-06-10T05:14:53;15.30;6.40
20233;DHT22;37438;55.674;13.074;2023-06-10T05:17:57;15.50;1.00
20233;DHT22;37438;55.674;13.074;2023-06-10T05:21:06;15.60;1.00
20233;DHT22;37438;55.674;13.074;2023-06-10T05:24:11;15.80;1.00
20233;DHT22;37438;55.674;13.074;2023-06-10T05:27:16;15.80;99.90
20233;DHT22;37438;55.674;13.074;2023-06-10T05:30:21;15.90;99.90
20233;DHT22;37438;55.674;13.074;2023-06-10T05:33:25;16.10;99.90
20233;DHT22;37438;55.674;13.074;2023-06-10T05:36:30;16.20;99.90
20233;DHT22;37438;55.674;13.074;2023-06-10T05:39:35;16.20;99.90
20233;DHT22;37438;55.674;13.074;2023-06-10T05:42:41;16.10;99.90
20233;DHT22;37438;55.674;13.074;2023-06-10T05:45:46;16.60;99.90
20233;DHT22;37438;55.674;13.074;2023-06-10T05:48:50;16.80;99.90
20233;DHT22;37438;55.674;13.074;2023-06-10T05:51:54;17.00;99.90
20233;DHT22;37438;55.674;13.074;2023-06-10T05:55:04;17.00;99.90
20233;DHT22;37438;55.674;13.074;2023-06-10T05:58:09;17.10;99.90
20233;DHT22;37438;55.674;13.074;2023-06-10T06:01:15;17.30;70.40
20233;DHT22;37438;55.674;13.074;2023-06-10T06:04:19;17.50;51.60
20233;DHT22;37438;55.674;13.074;2023-06-10T06:07:23;17.60;3.20
20233;DHT22;37438;55.674;13.074;2023-06-10T06:10:28;17.30;1.00
20233;DHT22;37438;55.674;13.074;2023-06-10T06:13:33;17.50;1.00
20233;DHT22;37438;55.674;13.074;2023-06-10T06:16:38;17.90;1.00
20233;DHT22;37438;55.674;13.074;2023-06-10T06:19:42;17.90;99.90
20233;DHT22;37438;55.674;13.074;2023-06-10T06:22:47;18.00;99.90
20233;DHT22;37438;55.674;13.074;2023-06-10T06:25:52;18.20;99.90
20233;DHT22;37438;55.674;13.074;2023-06-10T06:28:56;18.30;99.90
20233;DHT22;37438;55.674;13.074;2023-06-10T06:32:01;18.30;99.90
20233;DHT22;37438;55.674;13.074;2023-06-10T06:35:06;18.10;99.90
20233;DHT22;37438;55.674;13.074;2023-06-10T06:38:12;18.90;99.90
20233;DHT22;37438;55.674;13.074;2023-06-10T06:41:17;18.80;99.90
20233;DHT22;37438;55.674;13.074;2023-06-10T06:44:21;19.00;99.90
20233;DHT22;37438;55.674;13.074;2023-06-10T06:47:30;19.50;99.90
20233;DHT22;37438;55.674;13.074;2023-06-10T06:50:34;20.00;58.40
20233;DHT22;37438;55.674;13.074;2023-06-10T06:53:39;19.50;1.00
20233;DHT22;37438;55.674;13.074;2023-06-10T06:56:48;19.50;1.00
20233;DHT22;37438;55.674;13.074;2023-06-10T06:59:53;19.60;99.90
20233;DHT22;37438;55.674;13.074;2023-06-10T07:02:58;19.90;99.90
20233;DHT22;37438;55.674;13.074;2023-06-10T07:06:03;19.50;99.90
20233;DHT22;37438;55.674;13.074;2023-06-10T07:09:08;19.80;99.90
20233;DHT22;37438;55.674;13.074;2023-06-10T07:12:13;19.70;99.90
20233;DHT22;37438;55.674;13.074;2023-06-10T07:15:17;19.80;99.90
20233;DHT22;37438;55.674;13.074;2023-06-10T07:18:22;20.50;99.90
20233;DHT22;37438;55.674;13.074;2023-06-10T07:21:27;20.50;99.90
20233;DHT22;37438;55.674;13.074;2023-06-10T07:24:32;20.50;99.90
20233;DHT22;37438;55.674;13.074;2023-06-10T07:27:37;21.10;99.90
20233;DHT22;37438;55.674;13.074;2023-06-10T07:30:42;21.00;99.90
20233;DHT22;37438;55.674;13.074;2023-06-10T07:33:46;20.80;99.90
20233;DHT22;37438;55.674;13.074;2023-06-10T07:36:51;20.90;99.90
20233;DHT22;37438;55.674;13.074;2023-06-10T07:39:56;20.70;99.90
20233;DHT22;37438;55.674;13.074;2023-06-10T07:43:01;20.80;99.90
20233;DHT22;37438;55.674;13.074;2023-06-10T07:46:05;21.20;99.90
20233;DHT22;37438;55.674;13.074;2023-06-10T07:49:10;20.70;99.90
20233;DHT22;37438;55.674;13.074;2023-06-10T07:52:14;21.10;99.90
20233;DHT22;37438;55.674;13.074;2023-06-10T07:55:19;21.20;99.90
20233;DHT22;37438;55.674;13.074;2023-06-10T07:58:23;21.80;99.90
20233;DHT22;37438;55.674;13.074;2023-06-10T08:01:27;21.80;99.90
20233;DHT22;37438;55.674;13.074;2023-06-10T08:04:34;22.80;99.90
20233;DHT22;37438;55.674;13.074;2023-06-10T08:07:40;23.10;99.90
20233;DHT22;37438;55.674;13.074;2023-06-10T08:10:45;23.20;99.90
20233;DHT22;37438;55.674;13.074;2023-06-10T08:13:50;23.50;99.90
20233;DHT22;37438;55.674;13.074;2023-06-10T08:16:54;22.60;99.90
20233;DHT22;37438;55.674;13.074;2023-06-10T08:19:58;23.10;99.90
20233;DHT22;37438;55.674;13.074;2023-06-10T08:23:03;23.20;99.90
20233;DHT22;37438;55.674;13.074;2023-06-10T08:26:07;22.00;99.90
20233;DHT22;37438;55.674;13.074;2023-06-10T08:29:12;21.90;99.90
20233;DHT22;37438;55.674;13.074;2023-06-10T08:32:18;21.90;99.90
20233;DHT22;37438;55.674;13.074;2023-06-10T08:35:22;22.40;99.90
20233;DHT22;37438;55.674;13.074;2023-06-10T08:38:26;21.70;99.90
20233;DHT22;37438;55.674;13.074;2023-06-10T08:41:35;22.00;99.90
20233;DHT22;37438;55.674;13.074;2023-06-10T08:44:42;22.30;99.90
20233;DHT22;37438;55.674;13.074;2023-06-10T08:47:50;22.40;99.90
20233;DHT22;37438;55.674;13.074;2023-06-10T08:50:58;22.30;99.90
20233;DHT22;37438;55.674;13.074;2023-06-10T08:54:17;22.10;99.90
20233;DHT22;37438;55.674;13.074;2023-06-10T08:57:25;22.10;99.90
20233;DHT22;37438;55.674;13.074;2023-06-10T09:00:32;22.30;99.90
20233;DHT22;37438;55.674;13.074;2023-06-10T09:03:37;22.00;99.90
20233;DHT22;37438;55.674;13.074;2023-06-10T09:06:42;22.40;99.90
20233;DHT22;37438;55.674;13.074;2023-06-10T09:09:49;22.20;99.90
20233;DHT22;37438;55.674;13.074;2023-06-10T09:12:54;22.40;99.90
20233;DHT22;37438;55.674;13.074;2023-06-10T09:15:58;22.70;99.90
20233;DHT22;37438;55.674;13.074;2023-06-10T09:19:07;23.80;99.90
20233;DHT22;37438;55.674;13.074;2023-06-10T09:22:12;22.20;99.90
20233;DHT22;37438;55.674;13.074;2023-06-10T09:25:17;22.30;99.90
20233;DHT22;37438;55.674;13.074;2023-06-10T09:28:23;22.20;99.90
20233;DHT22;37438;55.674;13.074;2023-06-10T09:31:27;22.20;99.90
20233;DHT22;37438;55.674;13.074;2023-06-10T09:34:32;21.70;99.90
20233;DHT22;37438;55.674;13.074;2023-06-10T09:37:38;22.60;99.90
20233;DHT22;37438;55.674;13.074;2023-06-10T09:40:53;23.20;99.90
20233;DHT22;37438;55.674;13.074;2023-06-10T09:43:57;23.60;99.90
20233;DHT22;37438;55.674;13.074;2023-06-10T09:47:02;23.20;99.90
20233;DHT22;37438;55.674;13.074;2023-06-10T09:50:07;23.20;99.90
20233;DHT22;37438;55.674;13.074;2023-06-10T09:53:14;22.80;99.90
20233;DHT22;37438;55.674;13.074;2023-06-10T09:56:21;22.70;99.90
20233;DHT22;37438;55.674;13.074;2023-06-10T09:59:37;22.40;99.90
20233;DHT22;37438;55.674;13.074;2023-06-10T10:02:46;23.40;99.90
20233;DHT22;37438;55.674;13.074;2023-06-10T10:05:58;23.10;99.90
20233;DHT22;37438;55.674;13.074;2023-06-10T10:09:03;22.40;99.90
20233;DHT22;37438;55.674;13.074;2023-06-10T10:12:13;22.50;99.90
20233;DHT22;37438;55.674;13.074;2023-06-10T10:15:18;21.80;99.90
20233;DHT22;37438;55.674;13.074;2023-06-10T10:18:24;22.10;99.90
20233;DHT22;37438;55.674;13.074;2023-06-10T10:21:39;22.50;99.90
20233;DHT22;37438;55.674;13.074;2023-06-10T10:24:52;22.50;99.90
20233;DHT22;37438;55.674;13.074;2023-06-10T10:28:11;22.80;99.90
20233;DHT22;37438;55.674;13.074;2023-06-10T10:31:18;22.90;99.90
20233;DHT22;37438;55.674;13.074;2023-06-10T10:37:45;22.80;99.90
20233;DHT22;37438;55.674;13.074;2023-06-10T10:40:51;22.70;99.90
20233;DHT22;37438;55.674;13.074;2023-06-10T10:43:56;23.60;99.90
20233;DHT22;37438;55.674;13.074;2023-06-10T10:47:03;23.40;99.90
20233;DHT22;37438;55.674;13.074;2023-06-10T10:50:15;23.30;99.90
20233;DHT22;37438;55.674;13.074;2023-06-10T10:53:20;23.40;99.90
20233;DHT22;37438;55.674;13.074;2023-06-10T10:56:27;23.80;99.90
20233;DHT22;37438;55.674;13.074;2023-06-10T10:59:56;24.50;99.90
20233;DHT22;37438;55.674;13.074;2023-06-10T11:06:14;24.90;99.90
20233;DHT22;37438;55.674;13.074;2023-06-10T11:09:28;23.60;99.90
20233;DHT22;37438;55.674;13.074;2023-06-10T11:15:51;22.00;99.90
20233;DHT22;37438;55.674;13.074;2023-06-10T11:18:56;22.10;99.90
20233;DHT22;37438;55.674;13.074;2023-06-10T11:22:03;22.50;99.90
20233;DHT22;37438;55.674;13.074;2023-06-10T11:25:13;23.10;99.90
20233;DHT22;37438;55.674;13.074;2023-06-10T11:28:19;23.70;99.90
20233;DHT22;37438;55.674;13.074;2023-06-10T11:31:29;23.70;99.90
20233;DHT22;37438;55.674;13.074;2023-06-10T11:34:35;24.10;99.90
20233;DHT22;37438;55.674;13.074;2023-06-10T11:37:40;23.80;99.90
20233;DHT22;37438;55.674;13.074;2023-06-10T11:40:48;23.60;99.90
20233;DHT22;37438;55.674;13.074;2023-06-10T11:43:54;24.10;99.90
20233;DHT22;37438;55.674;13.074;2023-06-10T11:47:00;24.20;99.90
20233;DHT22;37438;55.674;13.074;2023-06-10T11:50:05;24.50;99.90
20233;DHT22;37438;55.674;13.074;2023-06-10T11:53:10;24.10;99.90
20233;DHT22;37438;55.674;13.074;2023-06-10T11:56:26;24.20;99.90
20233;DHT22;37438;55.674;13.074;2023-06-10T11:59:30;24.10;99.90
20233;DHT22;37438;55.674;13.074;2023-06-10T12:02:35;23.40;99.90
20233;DHT22;37438;55.674;13.074;2023-06-10T12:05:39;23.10;99.90
20233;DHT22;37438;55.674;13.074;2023-06-10T12:08:44;23.60;99.90
20233;DHT22;37438;55.674;13.074;2023-06-10T12:12:05;22.60;99.90
20233;DHT22;37438;55.674;13.074;2023-06-10T12:15:10;23.10;99.90
20233;DHT22;37438;55.674;13.074;2023-06-10T12:18:19;22.20;99.90
20233;DHT22;37438;55.674;13.074;2023-06-10T12:21:24;22.40;99.90
20233;DHT22;37438;55.674;13.074;2023-06-10T12:24:29;22.20;99.90
20233;DHT22;37438;55.674;13.074;2023-06-10T12:27:34;23.30;99.90
20233;DHT22;37438;55.674;13.074;2023-06-10T12:30:39;23.30;99.90
20233;DHT22;37438;55.674;13.074;2023-06-10T12:33:44;23.00;99.90
20233;DHT22;37438;55.674;13.074;2023-06-10T12:36:50;23.90;99.90
20233;DHT22;37438;55.674;13.074;2023-06-10T12:39:55;23.50;99.90
20233;DHT22;37438;55.674;13.074;2023-06-10T12:43:01;23.20;99.90
20233;DHT22;37438;55.674;13.074;2023-06-10T12:46:10;23.50;99.90
20233;DHT22;37438;55.674;13.074;2023-06-10T12:49:20;23.50;99.90
20233;DHT22;37438;55.674;13.074;2023-06-10T12:52:25;23.10;99.90
20233;DHT22;37438;55.674;13.074;2023-06-10T12:55:30;24.10;99.90
20233;DHT22;37438;55.674;13.074;2023-06-10T12:58:34;23.10;99.90
20233;DHT22;37438;55.674;13.074;2023-06-10T13:01:39;23.50;99.90
20233;DHT22;37438;55.674;13.074;2023-06-10T13:04:43;22.80;99.90
20233;DHT22;37438;55.674;13.074;2023-06-10T13:07:48;23.10;99.90
20233;DHT22;37438;55.674;13.074;2023-06-10T13:10:53;22.80;99.90
20233;DHT22;37438;55.674;13.074;2023-06-10T13:13:57;22.90;99.90
20233;DHT22;37438;55.674;13.074;2023-06-10T13:17:01;23.10;99.90
20233;DHT22;37438;55.674;13.074;2023-06-10T13:20:07;23.10;99.90
20233;DHT22;37438;55.674;13.074;2023-06-10T13:23:12;23.40;99.90
20233;DHT22;37438;55.674;13.074;2023-06-10T13:26:17;23.10;99.90
20233;DHT22;37438;55.674;13.074;2023-06-10T13:29:21;22.90;99.90
20233;DHT22;37438;55.674;13.074;2023-06-10T13:32:26;23.10;99.90
20233;DHT22;37438;55.674;13.074;2023-06-10T13:35:30;23.50;99.90
20233;DHT22;37438;55.674;13.074;2023-06-10T13:38:35;22.90;99.90
20233;DHT22;37438;55.674;13.074;2023-06-10T13:41:40;23.10;99.90
20233;DHT22;37438;55.674;13.074;2023-06-10T13:44:46;23.10;99.90
20233;DHT22;37438;55.674;13.074;2023-06-10T13:47:51;22.20;99.90
20233;DHT22;37438;55.674;13.074;2023-06-10T13:50:56;22.40;99.90
20233;DHT22;37438;55.674;13.074;2023-06-10T13:54:01;22.70;99.90
20233;DHT22;37438;55.674;13.074;2023-06-10T13:57:05;23.10;99.90
20233;DHT22;37438;55.674;13.074;2023-06-10T14:00:10;22.60;99.90
20233;DHT22;37438;55.674;13.074;2023-06-10T14:03:15;22.40;99.90
20233;DHT22;37438;55.674;13.074;2023-06-10T14:06:20;22.80;99.90
20233;DHT22;37438;55.674;13.074;2023-06-10T14:09:24;22.30;99.90
20233;DHT22;37438;55.674;13.074;2023-06-10T14:12:28;22.10;99.90
20233;DHT22;37438;55.674;13.074;2023-06-10T14:15:33;22.20;99.90
20233;DHT22;37438;55.674;13.074;2023-06-10T14:18:39;22.50;99.90
20233;DHT22;37438;55.674;13.074;2023-06-10T14:21:44;22.40;99.90
20233;DHT22;37438;55.674;13.074;2023-06-10T14:24:48;21.70;99.90
20233;DHT22;37438;55.674;13.074;2023-06-10T14:27:52;22.20;99.90
20233;DHT22;37438;55.674;13.074;2023-06-10T14:30:57;22.10;99.90
20233;DHT22;37438;55.674;13.074;2023-06-10T14:34:02;22.20;99.90
20233;DHT22;37438;55.674;13.074;2023-06-10T14:37:06;22.00;99.90
20233;DHT22;37438;55.674;13.074;2023-06-10T14:40:11;21.10;99.90
20233;DHT22;37438;55.674;13.074;2023-06-10T14:43:16;21.70;99.90
20233;DHT22;37438;55.674;13.074;2023-06-10T14:46:20;21.50;99.90
20233;DHT22;37438;55.674;13.074;2023-06-10T14:49:25;21.30;99.90
20233;DHT22;37438;55.674;13.074;2023-06-10T14:52:30;21.00;99.90
20233;DHT22;37438;55.674;13.074;2023-06-10T14:55:34;21.20;99.90
20233;DHT22;37438;55.674;13.074;2023-06-10T14:58:39;21.70;99.90
20233;DHT22;37438;55.674;13.074;2023-06-10T15:01:43;21.60;99.90
20233;DHT22;37438;55.674;13.074;2023-06-10T15:04:48;21.80;99.90
20233;DHT22;37438;55.674;13.074;2023-06-10T15:07:52;21.60;99.90
20233;DHT22;37438;55.674;13.074;2023-06-10T15:10:57;21.30;99.90
20233;DHT22;37438;55.674;13.074;2023-06-10T15:14:01;21.70;99.90
20233;DHT22;37438;55.674;13.074;2023-06-10T15:17:06;21.20;99.90
20233;DHT22;37438;55.674;13.074;2023-06-10T15:20:10;21.60;99.90
20233;DHT22;37438;55.674;13.074;2023-06-10T15:23:15;21.50;99.90
20233;DHT22;37438;55.674;13.074;2023-06-10T15:26:21;21.30;99.90
20233;DHT22;37438;55.674;13.074;2023-06-10T15:29:25;22.20;99.90
20233;DHT22;37438;55.674;13.074;2023-06-10T15:32:29;22.60;99.90
20233;DHT22;37438;55.674;13.074;2023-06-10T15:35:34;22.90;99.90
20233;DHT22;37438;55.674;13.074;2023-06-10T15:38:39;22.70;99.90
20233;DHT22;37438;55.674;13.074;2023-06-10T15:41:44;22.60;99.90
20233;DHT22;37438;55.674;13.074;2023-06-10T15:44:49;22.30;99.90
20233;DHT22;37438;55.674;13.074;2023-06-10T15:47:53;22.70;99.90
20233;DHT22;37438;55.674;13.074;2023-06-10T15:50:58;22.90;99.90
20233;DHT22;37438;55.674;13.074;2023-06-10T15:54:02;22.50;99.90
20233;DHT22;37438;55.674;13.074;2023-06-10T15:57:07;22.10;99.90
20233;DHT22;37438;55.674;13.074;2023-06-10T16:00:13;21.50;99.90
20233;DHT22;37438;55.674;13.074;2023-06-10T16:03:18;21.40;99.90
20233;DHT22;37438;55.674;13.074;2023-06-10T16:06:23;22.00;99.90
20233;DHT22;37438;55.674;13.074;2023-06-10T16:09:27;21.80;99.90
20233;DHT22;37438;55.674;13.074;2023-06-10T16:12:31;22.30;99.90
20233;DHT22;37438;55.674;13.074;2023-06-10T16:15:36;21.50;99.90
20233;DHT22;37438;55.674;13.074;2023-06-10T16:18:40;20.90;99.90
20233;DHT22;37438;55.674;13.074;2023-06-10T16:21:45;21.20;99.90
20233;DHT22;37438;55.674;13.074;2023-06-10T16:24:50;21.50;99.90
20233;DHT22;37438;55.674;13.074;2023-06-10T16:27:55;21.60;99.90
20233;DHT22;37438;55.674;13.074;2023-06-10T16:30:59;21.00;99.90
20233;DHT22;37438;55.674;13.074;2023-06-10T16:34:04;20.60;99.90
20233;DHT22;37438;55.674;13.074;2023-06-10T16:37:09;21.20;99.90
20233;DHT22;37438;55.674;13.074;2023-06-10T16:40:14;20.60;99.90
20233;DHT22;37438;55.674;13.074;2023-06-10T16:43:19;18.80;99.90
20233;DHT22;37438;55.674;13.074;2023-06-10T16:46:24;18.40;99.90
20233;DHT22;37438;55.674;13.074;2023-06-10T16:49:29;18.10;99.90
20233;DHT22;37438;55.674;13.074;2023-06-10T16:52:34;17.70;99.90
20233;DHT22;37438;55.674;13.074;2023-06-10T16:55:38;17.70;99.90
20233;DHT22;37438;55.674;13.074;2023-06-10T16:58:45;17.50;99.90
20233;DHT22;37438;55.674;13.074;2023-06-10T17:01:49;17.50;99.90
20233;DHT22;37438;55.674;13.074;2023-06-10T17:04:54;17.50;99.90
20233;DHT22;37438;55.674;13.074;2023-06-10T17:07:58;17.30;99.90
20233;DHT22;37438;55.674;13.074;2023-06-10T17:11:03;17.20;99.90
20233;DHT22;37438;55.674;13.074;2023-06-10T17:14:07;17.30;99.90
20233;DHT22;37438;55.674;13.074;2023-06-10T17:17:12;17.10;99.90
20233;DHT22;37438;55.674;13.074;2023-06-10T17:20:16;17.10;99.90
20233;DHT22;37438;55.674;13.074;2023-06-10T17:23:21;17.10;99.90
20233;DHT22;37438;55.674;13.074;2023-06-10T17:26:25;17.10;99.90
20233;DHT22;37438;55.674;13.074;2023-06-10T17:29:31;17.00;99.90
20233;DHT22;37438;55.674;13.074;2023-06-10T17:32:36;17.00;99.90
20233;DHT22;37438;55.674;13.074;2023-06-10T17:35:44;16.90;99.90
20233;DHT22;37438;55.674;13.074;2023-06-10T17:38:48;17.00;99.90
20233;DHT22;37438;55.674;13.074;2023-06-10T17:41:53;16.80;99.90
20233;DHT22;37438;55.674;13.074;2023-06-10T17:44:57;16.70;99.90
20233;DHT22;37438;55.674;13.074;2023-06-10T17:48:02;16.50;99.90
20233;DHT22;37438;55.674;13.074;2023-06-10T17:51:07;16.40;99.90
20233;DHT22;37438;55.674;13.074;2023-06-10T17:54:11;16.30;99.90
20233;DHT22;37438;55.674;13.074;2023-06-10T17:57:15;16.20;99.90
20233;DHT22;37438;55.674;13.074;2023-06-10T18:00:20;16.10;99.90
20233;DHT22;37438;55.674;13.074;2023-06-10T18:03:24;16.10;99.90
20233;DHT22;37438;55.674;13.074;2023-06-10T18:06:34;16.00;99.90
20233;DHT22;37438;55.674;13.074;2023-06-10T18:09:38;15.90;99.90
20233;DHT22;37438;55.674;13.074;2023-06-10T18:12:42;15.90;99.90
20233;DHT22;37438;55.674;13.074;2023-06-10T18:15:47;15.70;99.90
20233;DHT22;37438;55.674;13.074;2023-06-10T18:18:51;15.60;99.90
20233;DHT22;37438;55.674;13.074;2023-06-10T18:21:56;15.60;99.90
20233;DHT22;37438;55.674;13.074;2023-06-10T18:25:01;15.50;99.90
20233;DHT22;37438;55.674;13.074;2023-06-10T18:28:09;15.40;99.90
20233;DHT22;37438;55.674;13.074;2023-06-10T18:31:14;15.40;99.90
20233;DHT22;37438;55.674;13.074;2023-06-10T18:34:19;15.40;99.90
20233;DHT22;37438;55.674;13.074;2023-06-10T18:37:23;15.30;99.90
20233;DHT22;37438;55.674;13.074;2023-06-10T18:40:28;15.20;99.90
20233;DHT22;37438;55.674;13.074;2023-06-10T18:43:33;15.10;99.90
20233;DHT22;37438;55.674;13.074;2023-06-10T18:46:37;15.10;99.90
20233;DHT22;37438;55.674;13.074;2023-06-10T18:49:42;15.00;99.90
20233;DHT22;37438;55.674;13.074;2023-06-10T18:52:46;14.90;99.90
20233;DHT22;37438;55.674;13.074;2023-06-10T18:55:51;14.80;99.90
20233;DHT22;37438;55.674;13.074;2023-06-10T18:58:55;14.80;99.90
20233;DHT22;37438;55.674;13.074;2023-06-10T19:02:00;14.70;99.90
20233;DHT22;37438;55.674;13.074;2023-06-10T19:05:05;14.60;99.90
20233;DHT22;37438;55.674;13.074;2023-06-10T19:08:12;14.50;99.90
20233;DHT22;37438;55.674;13.074;2023-06-10T19:11:17;14.40;99.90
20233;DHT22;37438;55.674;13.074;2023-06-10T19:14:22;14.30;99.90
20233;DHT22;37438;55.674;13.074;2023-06-10T19:17:26;14.30;99.90
20233;DHT22;37438;55.674;13.074;2023-06-10T19:20:31;14.20;99.90
20233;DHT22;37438;55.674;13.074;2023-06-10T19:23:36;14.10;99.90
20233;DHT22;37438;55.674;13.074;2023-06-10T19:26:40;14.10;99.90
20233;DHT22;37438;55.674;13.074;2023-06-10T19:29:45;14.10;99.90